Time;durP1;ratioP1;P1;durP2;ratioP2;P2;SDS_P1;SDS_P2;PMS_P1;PMS_P2;Temp;Humidity;BMP_temperature;BMP_pressure;BME280_temperature;BME280_humidity;BME280_pressure;Samples;Min_cycle;Max_cycle;Signal;HPM_P1;HPM_P2
2023/03/28 00:00:04;;;;;;;5.82;3.00;;;1.20;99.90;;;;;;5038548;28;20085;-75
2023/03/28 00:02:30;;;;;;;2.88;1.83;;;1.10;99.90;;;;;;5022617;28;20387;-76
2023/03/28 00:04:55;;;;;;;3.88;2.75;;;1.10;99.90;;;;;;5026385;28;20030;-75
2023/03/28 00:07:21;;;;;;;4.80;2.20;;;1.10;99.90;;;;;;5033378;28;20109;-76
2023/03/28 00:09:48;;;;;;;3.30;2.63;;;1.00;99.90;;;;;;5031145;28;20017;-75
2023/03/28 00:12:13;;;;;;;4.20;2.53;;;1.00;99.90;;;;;;5032343;28;20025;-76
2023/03/28 00:14:41;;;;;;;3.90;2.00;;;0.90;99.90;;;;;;5029806;28;20052;-75
2023/03/28 00:17:06;;;;;;;4.88;2.55;;;0.80;99.90;;;;;;4995912;28;20038;-76
2023/03/28 00:19:32;;;;;;;4.30;2.42;;;0.90;99.90;;;;;;5031314;28;20122;-76
2023/03/28 00:21:59;;;;;;;5.22;2.40;;;0.90;99.90;;;;;;5033762;28;20132;-77
2023/03/28 00:24:25;;;;;;;2.85;2.20;;;0.80;99.90;;;;;;5025629;28;20044;-76
2023/03/28 00:26:54;;;;;;;2.70;1.85;;;0.90;99.90;;;;;;5030917;28;20065;-77
2023/03/28 00:29:21;;;;;;;3.03;2.17;;;0.90;99.90;;;;;;5016981;28;20097;-76
2023/03/28 00:31:48;;;;;;;3.80;2.25;;;1.00;99.90;;;;;;5025132;28;20090;-77
2023/03/28 00:34:14;;;;;;;2.78;1.95;;;1.10;99.90;;;;;;5041126;28;20038;-75
2023/03/28 00:36:41;;;;;;;3.47;1.88;;;1.20;99.90;;;;;;5001790;28;20026;-75
2023/03/28 00:39:09;;;;;;;2.75;1.83;;;1.20;99.90;;;;;;5014170;28;20450;-76
2023/03/28 00:41:38;;;;;;;2.88;2.58;;;1.30;99.90;;;;;;4995819;28;20116;-75
2023/03/28 00:44:39;;;;;;;2.88;2.05;;;1.40;99.90;;;;;;5012556;28;20096;-75
2023/03/28 00:47:24;;;;;;;2.70;2.15;;;1.40;99.90;;;;;;4995174;28;20029;-75
2023/03/28 00:49:54;;;;;;;2.78;2.20;;;1.50;99.90;;;;;;5031236;28;20029;-76
2023/03/28 00:52:23;;;;;;;4.57;1.70;;;1.50;99.90;;;;;;5033206;28;20029;-75
2023/03/28 00:54:51;;;;;;;3.47;2.45;;;1.50;99.90;;;;;;5031987;28;20033;-76
2023/03/28 00:57:17;;;;;;;6.10;2.50;;;1.50;99.90;;;;;;5013509;28;20095;-76
2023/03/28 00:59:43;;;;;;;2.25;2.00;;;1.40;99.90;;;;;;5032671;28;20100;-75
2023/03/28 01:02:10;;;;;;;3.28;2.05;;;1.50;99.90;;;;;;5031218;28;20029;-75
2023/03/28 01:04:53;;;;;;;3.47;2.42;;;1.50;99.90;;;;;;5013849;28;20470;-76
2023/03/28 01:07:19;;;;;;;5.70;2.70;;;1.50;99.90;;;;;;5022421;28;20044;-75
2023/03/28 01:09:46;;;;;;;3.08;2.60;;;1.40;99.90;;;;;;5027813;28;20034;-77
2023/03/28 01:12:14;;;;;;;4.22;2.38;;;1.30;99.90;;;;;;5006616;28;20137;-75
2023/03/28 01:14:42;;;;;;;3.40;2.38;;;1.20;99.90;;;;;;5013569;28;20471;-75
2023/03/28 01:17:09;;;;;;;3.65;2.13;;;1.10;99.90;;;;;;5012792;28;20411;-75
2023/03/28 01:19:57;;;;;;;2.95;2.10;;;1.10;99.90;;;;;;5012598;28;20478;-75
2023/03/28 01:22:44;;;;;;;5.68;3.05;;;1.10;99.90;;;;;;4998912;28;20441;-75
2023/03/28 01:25:43;;;;;;;5.80;2.92;;;1.10;99.90;;;;;;5025677;28;20030;-75
2023/03/28 01:28:30;;;;;;;4.25;2.63;;;1.10;99.90;;;;;;5020656;28;20017;-76
2023/03/28 01:31:16;;;;;;;5.55;3.58;;;1.10;99.90;;;;;;5023984;28;20018;-77
2023/03/28 01:34:12;;;;;;;4.85;3.25;;;1.10;99.90;;;;;;5016977;28;20041;-76
2023/03/28 01:37:15;;;;;;;5.07;2.55;;;1.00;99.90;;;;;;5026445;28;20018;-75
2023/03/28 01:40:21;;;;;;;4.72;2.83;;;1.00;99.90;;;;;;5005804;28;20029;-75
2023/03/28 01:43:22;;;;;;;5.68;3.33;;;0.90;99.90;;;;;;5012485;28;20068;-77
2023/03/28 01:46:07;;;;;;;3.80;2.75;;;0.80;99.90;;;;;;4962095;28;20035;-75
2023/03/28 01:48:50;;;;;;;5.13;3.08;;;0.70;99.90;;;;;;5023083;28;20402;-76
2023/03/28 01:51:16;;;;;;;5.22;3.08;;;0.70;99.90;;;;;;5015834;28;20022;-75
2023/03/28 01:53:59;;;;;;;6.22;3.08;;;0.60;99.90;;;;;;5025866;28;20032;-75
2023/03/28 01:56:51;;;;;;;5.10;3.03;;;0.60;99.90;;;;;;5034602;28;20493;-75
2023/03/28 01:59:40;;;;;;;7.95;4.00;;;0.60;99.90;;;;;;5022474;28;20540;-76
2023/03/28 02:02:16;;;;;;;3.92;3.25;;;0.70;99.90;;;;;;5033183;28;20029;-75
2023/03/28 02:04:47;;;;;;;5.85;3.78;;;0.60;99.90;;;;;;5014816;28;20403;-75
2023/03/28 02:07:15;;;;;;;5.35;4.20;;;0.60;99.90;;;;;;5015951;28;20105;-76
2023/03/28 02:09:43;;;;;;;5.35;4.47;;;0.60;99.90;;;;;;5029830;28;20034;-76
2023/03/28 02:12:16;;;;;;;5.72;3.88;;;0.60;99.90;;;;;;5013827;28;20026;-74
2023/03/28 02:14:45;;;;;;;7.53;4.47;;;0.60;99.90;;;;;;5016399;28;20037;-75
2023/03/28 02:17:15;;;;;;;6.28;4.50;;;0.60;99.90;;;;;;5014531;28;20029;-75
2023/03/28 02:19:54;;;;;;;6.82;4.32;;;0.50;99.90;;;;;;5015118;28;20334;-75
2023/03/28 02:22:46;;;;;;;4.68;3.40;;;0.50;99.90;;;;;;5015978;28;20025;-75
2023/03/28 02:25:12;;;;;;;5.13;3.97;;;0.50;99.90;;;;;;5029473;28;20460;-75
2023/03/28 02:27:39;;;;;;;6.03;4.07;;;0.50;99.90;;;;;;5033333;28;20113;-75
2023/03/28 02:30:07;;;;;;;5.13;3.97;;;0.50;99.90;;;;;;5034731;28;20037;-75
2023/03/28 02:32:33;;;;;;;3.95;2.95;;;0.50;99.90;;;;;;5020327;28;20116;-75
2023/03/28 02:34:59;;;;;;;4.68;3.05;;;0.50;99.90;;;;;;5030947;28;20134;-75
2023/03/28 02:38:00;;;;;;;7.40;4.45;;;0.50;99.90;;;;;;5016903;28;20049;-77
2023/03/28 02:40:31;;;;;;;7.53;4.55;;;0.40;99.90;;;;;;5025638;28;20081;-76
2023/03/28 02:43:14;;;;;;;6.35;3.70;;;0.40;99.90;;;;;;5033051;28;20029;-76
2023/03/28 02:46:10;;;;;;;5.72;4.15;;;0.40;99.90;;;;;;5030078;28;20472;-76
2023/03/28 02:48:42;;;;;;;8.63;4.70;;;0.40;99.90;;;;;;4977384;28;20034;-75
2023/03/28 02:51:47;;;;;;;11.25;5.45;;;0.40;99.90;;;;;;5014896;28;20487;-76
2023/03/28 02:54:30;;;;;;;7.43;4.47;;;0.30;99.90;;;;;;5003555;28;20041;-75
2023/03/28 02:57:06;;;;;;;6.22;4.22;;;0.30;99.90;;;;;;5035392;28;20072;-75
2023/03/28 02:59:43;;;;;;;8.23;4.28;;;0.20;99.90;;;;;;5025345;28;20458;-75
2023/03/28 03:02:15;;;;;;;7.10;4.25;;;0.20;99.90;;;;;;5041429;28;20033;-75
2023/03/28 03:04:40;;;;;;;5.85;4.18;;;0.20;99.90;;;;;;4985980;28;20483;-75
2023/03/28 03:07:08;;;;;;;6.78;4.25;;;0.20;99.90;;;;;;4999729;28;20037;-77
2023/03/28 03:09:34;;;;;;;5.93;4.13;;;0.20;99.90;;;;;;4996813;28;20499;-76
2023/03/28 03:12:00;;;;;;;6.80;4.00;;;0.20;99.90;;;;;;5017588;28;20026;-78
2023/03/28 03:14:26;;;;;;;5.38;4.15;;;0.10;99.90;;;;;;5014103;28;20038;-76
2023/03/28 03:16:51;;;;;;;10.05;4.65;;;0.10;99.90;;;;;;5014209;28;20334;-75
2023/03/28 03:19:18;;;;;;;9.38;4.88;;;0.20;99.90;;;;;;5027666;28;20025;-76
2023/03/28 03:21:44;;;;;;;7.50;4.55;;;0.20;99.90;;;;;;5034402;28;20037;-76
2023/03/28 03:24:10;;;;;;;8.98;5.13;;;0.20;99.90;;;;;;5001000;28;20021;-76
2023/03/28 03:26:35;;;;;;;7.15;5.05;;;0.10;99.90;;;;;;5028102;28;20025;-75
2023/03/28 03:29:01;;;;;;;7.20;3.95;;;0.10;99.90;;;;;;5022229;28;20037;-75
2023/03/28 03:31:27;;;;;;;9.70;4.35;;;0.10;99.90;;;;;;5033729;28;20422;-76
2023/03/28 03:33:53;;;;;;;7.47;4.35;;;0.10;99.90;;;;;;5001488;28;20033;-75
2023/03/28 03:36:19;;;;;;;6.47;4.43;;;0.20;99.90;;;;;;4996093;28;20030;-76
2023/03/28 03:38:46;;;;;;;9.27;4.75;;;0.20;99.90;;;;;;5014992;28;20096;-78
2023/03/28 03:41:12;;;;;;;9.15;4.57;;;0.20;99.90;;;;;;5015474;28;20065;-75
2023/03/28 03:43:37;;;;;;;12.80;5.30;;;0.20;99.90;;;;;;5029393;28;20482;-76
2023/03/28 03:46:03;;;;;;;7.90;4.25;;;0.10;99.90;;;;;;5009740;28;20030;-76
2023/03/28 03:48:29;;;;;;;8.35;4.82;;;0.10;99.90;;;;;;5020848;28;20511;-74
2023/03/28 03:50:54;;;;;;;6.85;4.90;;;0.20;99.90;;;;;;5025152;28;20115;-76
2023/03/28 03:53:20;;;;;;;6.30;4.25;;;0.20;99.90;;;;;;5032078;28;20100;-74
2023/03/28 03:55:46;;;;;;;5.95;4.20;;;0.30;99.90;;;;;;5008475;28;20030;-74
2023/03/28 03:58:11;;;;;;;6.35;3.97;;;0.40;99.90;;;;;;5022348;28;20030;-76
2023/03/28 04:00:37;;;;;;;11.55;4.20;;;0.50;99.90;;;;;;5032842;28;20048;-75
2023/03/28 04:03:03;;;;;;;5.50;3.72;;;0.50;99.90;;;;;;5015561;28;20490;-75
2023/03/28 04:05:28;;;;;;;9.85;4.95;;;0.50;99.90;;;;;;5032811;28;20029;-76
2023/03/28 04:07:56;;;;;;;10.20;5.47;;;0.50;99.90;;;;;;5007117;28;20495;-76
2023/03/28 04:10:22;;;;;;;7.25;3.97;;;0.40;99.90;;;;;;5014016;28;20402;-76
2023/03/28 04:12:47;;;;;;;11.60;5.70;;;0.30;99.90;;;;;;4982274;28;20102;-75
2023/03/28 04:15:13;;;;;;;8.55;4.78;;;0.30;99.90;;;;;;5027326;28;20041;-75
2023/03/28 04:17:39;;;;;;;6.88;4.88;;;0.20;99.90;;;;;;5017438;28;20056;-75
2023/03/28 04:20:16;;;;;;;8.88;4.60;;;0.20;99.90;;;;;;5012748;28;20026;-74
2023/03/28 04:22:41;;;;;;;5.40;3.95;;;0.10;99.90;;;;;;5016753;28;20170;-75
2023/03/28 04:25:08;;;;;;;7.22;4.18;;;0.00;99.90;;;;;;5012983;28;20488;-76
2023/03/28 04:27:34;;;;;;;5.70;3.45;;;0.00;99.90;;;;;;5020902;28;20053;-74
2023/03/28 04:30:00;;;;;;;3.85;3.22;;;-0.10;99.90;;;;;;5008046;28;20087;-75
2023/03/28 04:32:26;;;;;;;8.75;4.65;;;-0.10;99.90;;;;;;5019357;28;20426;-74
2023/03/28 04:34:51;;;;;;;7.30;4.47;;;-0.10;99.90;;;;;;5032927;28;20320;-74
2023/03/28 04:37:18;;;;;;;7.90;4.57;;;-0.20;99.90;;;;;;5021960;28;20034;-74
2023/03/28 04:39:46;;;;;;;8.40;4.68;;;-0.20;99.90;;;;;;5028270;28;20026;-75
2023/03/28 04:42:13;;;;;;;8.88;4.72;;;-0.20;99.90;;;;;;5014585;28;20026;-75
2023/03/28 04:44:39;;;;;;;9.68;5.40;;;-0.20;99.90;;;;;;5026289;28;20045;-75
2023/03/28 04:47:07;;;;;;;9.30;4.82;;;-0.20;99.90;;;;;;5000105;28;20478;-75
2023/03/28 04:49:33;;;;;;;14.10;4.85;;;-0.20;99.90;;;;;;5032553;28;20087;-75
2023/03/28 04:51:59;;;;;;;5.40;4.32;;;-0.20;99.90;;;;;;5034479;28;20021;-74
2023/03/28 04:54:25;;;;;;;6.65;4.70;;;-0.20;99.90;;;;;;5031799;28;20024;-77
2023/03/28 04:56:52;;;;;;;11.30;5.38;;;-0.20;99.90;;;;;;5020824;28;20037;-75
2023/03/28 04:59:18;;;;;;;10.43;5.57;;;-0.20;99.90;;;;;;5019418;28;20382;-76
2023/03/28 05:01:48;;;;;;;8.50;5.20;;;-0.20;99.90;;;;;;5018756;28;20022;-74
2023/03/28 05:04:18;;;;;;;9.05;4.38;;;-0.20;99.90;;;;;;5017755;28;20044;-75
2023/03/28 05:06:48;;;;;;;8.55;6.00;;;-0.30;99.90;;;;;;5007817;28;20587;-75
2023/03/28 05:09:16;;;;;;;10.00;5.35;;;-0.30;99.90;;;;;;5013362;28;20105;-73
2023/03/28 05:11:42;;;;;;;12.05;6.05;;;-0.30;99.90;;;;;;5036224;28;20034;-75
2023/03/28 05:14:08;;;;;;;10.23;5.80;;;-0.30;99.90;;;;;;5033512;28;20032;-76
2023/03/28 05:16:34;;;;;;;8.23;4.70;;;-0.30;99.90;;;;;;5025837;28;20037;-75
2023/03/28 05:19:00;;;;;;;11.13;4.97;;;-0.30;99.90;;;;;;5020689;28;20080;-75
2023/03/28 05:21:26;;;;;;;8.35;5.80;;;-0.20;99.90;;;;;;5016331;28;20025;-76
2023/03/28 05:23:52;;;;;;;9.10;5.35;;;-0.20;99.90;;;;;;5026763;28;20022;-74
2023/03/28 05:26:17;;;;;;;6.90;4.63;;;-0.20;99.90;;;;;;5016919;28;20041;-76
2023/03/28 05:28:43;;;;;;;9.07;5.50;;;-0.20;99.90;;;;;;5017507;28;20034;-75
2023/03/28 05:31:10;;;;;;;7.25;4.95;;;-0.20;99.90;;;;;;5016904;28;20022;-75
2023/03/28 05:33:36;;;;;;;8.38;4.38;;;-0.20;99.90;;;;;;5021655;28;20014;-77
2023/03/28 05:36:03;;;;;;;8.93;4.70;;;-0.10;99.90;;;;;;5036304;28;20025;-77
2023/03/28 05:38:30;;;;;;;10.57;5.55;;;-0.10;99.90;;;;;;5023905;28;20025;-76
2023/03/28 05:40:57;;;;;;;8.65;4.57;;;-0.10;99.90;;;;;;5017201;28;20024;-76
2023/03/28 05:43:23;;;;;;;11.27;5.50;;;0.00;99.90;;;;;;5030763;28;20048;-75
2023/03/28 05:45:49;;;;;;;8.60;4.32;;;0.00;99.90;;;;;;5020034;28;20061;-74
2023/03/28 05:48:15;;;;;;;12.80;5.53;;;0.00;99.90;;;;;;5025717;28;20026;-75
2023/03/28 05:50:40;;;;;;;11.68;4.45;;;0.10;99.90;;;;;;5007707;28;20026;-77
2023/03/28 05:53:06;;;;;;;8.90;5.20;;;0.10;99.90;;;;;;5029873;28;20120;-74
2023/03/28 05:55:32;;;;;;;7.15;5.05;;;0.10;99.90;;;;;;5036973;28;20034;-76
2023/03/28 05:57:58;;;;;;;9.35;5.50;;;0.10;99.90;;;;;;5037266;28;20044;-76
2023/03/28 06:00:24;;;;;;;8.20;4.80;;;0.20;99.90;;;;;;5021554;28;20029;-75
2023/03/28 06:02:50;;;;;;;7.20;4.28;;;0.20;99.90;;;;;;5017260;28;20029;-75
2023/03/28 06:05:17;;;;;;;8.93;4.32;;;0.30;99.90;;;;;;5030364;28;20324;-75
2023/03/28 06:07:44;;;;;;;9.38;4.38;;;0.30;99.90;;;;;;5005303;28;20030;-75
2023/03/28 06:10:11;;;;;;;15.43;5.05;;;0.40;99.90;;;;;;5016510;28;20110;-75
2023/03/28 06:12:37;;;;;;;6.03;3.90;;;0.60;99.90;;;;;;5023133;28;20128;-75
2023/03/28 06:15:03;;;;;;;6.63;3.83;;;0.80;99.90;;;;;;5035182;28;20068;-75
2023/03/28 06:17:29;;;;;;;15.68;7.07;;;1.10;99.90;;;;;;5001949;28;20026;-76
2023/03/28 06:19:55;;;;;;;7.95;4.65;;;1.30;99.90;;;;;;5020578;28;20032;-77
2023/03/28 06:22:21;;;;;;;9.52;5.05;;;1.40;99.90;;;;;;5008309;28;20021;-79
2023/03/28 06:24:46;;;;;;;6.80;4.45;;;1.50;99.90;;;;;;5030415;28;20033;-75
2023/03/28 06:27:12;;;;;;;6.85;3.30;;;1.60;99.90;;;;;;5020622;28;20037;-75
2023/03/28 06:29:38;;;;;;;6.88;4.90;;;1.80;99.90;;;;;;5028745;28;20390;-76
2023/03/28 06:32:03;;;;;;;7.72;4.68;;;2.00;99.80;;;;;;5036337;28;20029;-76
2023/03/28 06:34:29;;;;;;;6.78;4.65;;;2.10;99.00;;;;;;5029672;28;20045;-75
2023/03/28 06:36:55;;;;;;;9.25;4.53;;;2.10;98.40;;;;;;5018465;28;20422;-77
2023/03/28 06:39:20;;;;;;;10.82;4.63;;;2.10;98.30;;;;;;5029995;28;20120;-74
2023/03/28 06:41:46;;;;;;;12.45;4.55;;;2.10;97.80;;;;;;5029111;28;20360;-74
2023/03/28 06:44:12;;;;;;;7.38;3.63;;;2.10;97.10;;;;;;5014333;28;20387;-76
2023/03/28 06:46:38;;;;;;;6.00;3.25;;;2.00;97.30;;;;;;5014425;28;20037;-75
2023/03/28 06:49:05;;;;;;;6.00;3.53;;;2.00;97.50;;;;;;5014539;28;20037;-75
2023/03/28 06:51:31;;;;;;;7.28;4.18;;;2.20;97.50;;;;;;5014454;28;20018;-75
2023/03/28 06:53:56;;;;;;;10.57;4.40;;;2.40;96.90;;;;;;5014092;28;20447;-77
2023/03/28 06:56:22;;;;;;;6.07;3.53;;;2.50;96.30;;;;;;5015114;28;20029;-74
2023/03/28 06:58:48;;;;;;;6.85;3.40;;;2.70;96.10;;;;;;5029243;28;20067;-76
2023/03/28 07:01:17;;;;;;;8.13;3.53;;;2.80;95.50;;;;;;5033908;28;20033;-76
2023/03/28 07:03:43;;;;;;;7.72;2.80;;;2.90;95.30;;;;;;5035060;28;20033;-74
2023/03/28 07:06:10;;;;;;;6.20;3.55;;;3.00;95.00;;;;;;5034395;28;20021;-75
2023/03/28 07:08:36;;;;;;;8.32;3.75;;;3.10;93.70;;;;;;5021575;28;20026;-74
2023/03/28 07:11:02;;;;;;;5.13;2.75;;;3.20;93.90;;;;;;5014442;28;20049;-74
2023/03/28 07:13:28;;;;;;;6.70;3.03;;;3.30;93.80;;;;;;5013978;28;20081;-76
2023/03/28 07:16:10;;;;;;;7.88;3.05;;;3.20;93.30;;;;;;5014249;28;20022;-76
2023/03/28 07:18:36;;;;;;;9.07;3.20;;;3.10;92.90;;;;;;5018809;28;20038;-74
2023/03/28 07:21:10;;;;;;;4.95;3.47;;;2.90;92.80;;;;;;5032534;28;20025;-75
2023/03/28 07:23:38;;;;;;;6.70;2.50;;;2.70;93.00;;;;;;5012815;28;20025;-76
2023/03/28 07:26:05;;;;;;;7.45;2.70;;;2.60;93.30;;;;;;4996976;28;20186;-74
2023/03/28 07:28:31;;;;;;;4.28;2.40;;;2.50;93.70;;;;;;5019567;28;20026;-75
2023/03/28 07:31:00;;;;;;;4.50;2.72;;;2.60;94.00;;;;;;5020762;28;20033;-75
2023/03/28 07:33:26;;;;;;;3.65;2.55;;;2.60;93.70;;;;;;5016224;28;20076;-75
2023/03/28 07:35:52;;;;;;;10.27;3.08;;;2.50;93.70;;;;;;5015798;28;20054;-75
2023/03/28 07:38:18;;;;;;;7.95;2.55;;;2.60;93.30;;;;;;4997287;28;20022;-74
2023/03/28 07:40:44;;;;;;;6.45;2.90;;;2.70;93.30;;;;;;5014372;28;20037;-75
2023/03/28 07:43:09;;;;;;;15.05;2.85;;;3.00;92.70;;;;;;4997516;28;20033;-76
2023/03/28 07:45:36;;;;;;;4.97;2.95;;;3.40;91.90;;;;;;4997556;28;20054;-74
2023/03/28 07:48:04;;;;;;;5.43;2.60;;;3.80;91.30;;;;;;5015132;28;20088;-74
2023/03/28 07:50:30;;;;;;;11.90;3.42;;;4.10;90.50;;;;;;5018287;28;20034;-76
2023/03/28 07:52:59;;;;;;;7.40;3.05;;;4.10;90.00;;;;;;5016268;28;20037;-74
2023/03/28 07:55:26;;;;;;;5.93;2.22;;;4.20;89.30;;;;;;5003616;28;20028;-76
2023/03/28 07:57:52;;;;;;;3.83;1.98;;;4.20;88.90;;;;;;5034754;28;20025;-75
2023/03/28 08:00:22;;;;;;;4.22;2.10;;;4.00;87.30;;;;;;5018987;28;20086;-75
2023/03/28 08:02:48;;;;;;;6.30;2.53;;;3.90;86.90;;;;;;5034001;28;20112;-75
2023/03/28 08:05:14;;;;;;;3.78;2.00;;;4.10;87.30;;;;;;5032739;28;20386;-75
2023/03/28 08:07:40;;;;;;;6.38;2.38;;;4.30;84.80;;;;;;5032021;28;20025;-74
2023/03/28 08:10:08;;;;;;;7.80;2.35;;;4.20;84.00;;;;;;5017798;28;20168;-75
2023/03/28 08:12:34;;;;;;;4.25;1.77;;;4.40;85.00;;;;;;5035189;28;20021;-76
2023/03/28 08:15:00;;;;;;;4.50;1.40;;;4.50;84.30;;;;;;5021082;28;20037;-75
2023/03/28 08:17:25;;;;;;;5.55;1.90;;;4.50;83.30;;;;;;5014820;28;20029;-76
2023/03/28 08:19:52;;;;;;;5.15;1.60;;;4.60;82.60;;;;;;5009309;28;20021;-75
2023/03/28 08:22:18;;;;;;;6.53;1.83;;;4.50;80.30;;;;;;5034381;28;20022;-77
2023/03/28 08:24:43;;;;;;;5.68;2.00;;;4.40;80.50;;;;;;5006850;28;20052;-75
2023/03/28 08:27:09;;;;;;;5.80;1.55;;;4.30;81.40;;;;;;5028842;28;20026;-75
2023/03/28 08:29:35;;;;;;;3.30;1.80;;;4.30;82.00;;;;;;5007704;28;20037;-75
2023/03/28 08:32:02;;;;;;;6.00;2.00;;;4.20;81.80;;;;;;5031310;28;20059;-74
2023/03/28 08:34:28;;;;;;;8.80;2.08;;;4.30;81.60;;;;;;5037376;28;20025;-75
2023/03/28 08:36:54;;;;;;;4.22;1.77;;;4.30;79.90;;;;;;5018834;28;20316;-76
2023/03/28 08:39:19;;;;;;;4.68;1.40;;;4.30;80.60;;;;;;5019399;28;20458;-75
2023/03/28 08:42:26;;;;;;;6.75;2.03;;;4.60;80.20;;;;;;5000627;28;20033;-75
2023/03/28 08:45:07;;;;;;;4.78;1.67;;;4.80;78.80;;;;;;5017513;28;20100;-75
2023/03/28 08:48:01;;;;;;;8.35;2.00;;;4.80;78.40;;;;;;5021209;28;20026;-75
2023/03/28 08:50:32;;;;;;;3.08;1.77;;;5.00;76.90;;;;;;5001299;28;20022;-75
2023/03/28 08:53:00;;;;;;;2.97;1.27;;;5.20;74.00;;;;;;5034890;28;20501;-74
2023/03/28 08:55:41;;;;;;;2.08;1.30;;;5.40;74.30;;;;;;5031876;28;20128;-74
2023/03/28 08:58:22;;;;;;;4.95;1.30;;;5.70;74.30;;;;;;5019480;28;20026;-75
2023/03/28 09:00:49;;;;;;;4.07;1.73;;;6.30;70.20;;;;;;5024365;28;20061;-74
2023/03/28 09:03:21;;;;;;;6.53;2.22;;;6.50;66.80;;;;;;5048534;28;20037;-77
2023/03/28 09:05:53;;;;;;;4.90;1.52;;;6.10;66.00;;;;;;5022978;28;20022;-75
2023/03/28 09:08:37;;;;;;;3.63;1.40;;;6.10;65.20;;;;;;5033568;28;20076;-76
2023/03/28 09:11:17;;;;;;;1.75;0.90;;;6.30;64.00;;;;;;5045500;28;20457;-76
2023/03/28 09:13:49;;;;;;;4.40;1.27;;;6.80;64.30;;;;;;5021574;28;20567;-75
2023/03/28 09:16:32;;;;;;;3.22;1.30;;;7.20;62.30;;;;;;5032821;28;20038;-75
2023/03/28 09:19:27;;;;;;;6.13;1.42;;;7.50;60.60;;;;;;5021365;28;20045;-75
2023/03/28 09:22:06;;;;;;;3.08;1.00;;;7.80;60.40;;;;;;5030239;28;20077;-75
2023/03/28 09:24:42;;;;;;;6.00;1.13;;;8.30;60.40;;;;;;5037654;28;20084;-75
2023/03/28 09:27:15;;;;;;;3.58;1.23;;;8.30;56.20;;;;;;5025950;28;20022;-80
2023/03/28 09:29:44;;;;;;;2.05;0.90;;;7.80;54.70;;;;;;5013472;28;20116;-76
2023/03/28 09:32:29;;;;;;;1.85;0.90;;;7.10;55.70;;;;;;5018639;28;20390;-77
2023/03/28 09:34:55;;;;;;;1.25;0.73;;;6.80;57.50;;;;;;5018519;28;20025;-76
2023/03/28 09:37:32;;;;;;;2.60;0.80;;;6.80;56.40;;;;;;5017426;28;20036;-75
2023/03/28 09:40:13;;;;;;;2.03;1.00;;;6.80;56.60;;;;;;5018543;28;20025;-76
2023/03/28 09:43:01;;;;;;;1.30;0.80;;;6.70;56.00;;;;;;5018080;28;20132;-75
2023/03/28 09:45:44;;;;;;;4.07;1.35;;;6.90;57.30;;;;;;5000234;28;20048;-74
2023/03/28 09:48:24;;;;;;;2.42;1.10;;;6.80;56.90;;;;;;5018621;28;20045;-75
2023/03/28 09:50:51;;;;;;;4.13;1.27;;;6.40;58.30;;;;;;5020871;28;20018;-74
2023/03/28 09:53:26;;;;;;;3.70;1.52;;;6.10;59.10;;;;;;5020511;28;20395;-74
2023/03/28 09:55:55;;;;;;;4.47;1.52;;;6.20;59.80;;;;;;5019579;28;20045;-76
2023/03/28 09:58:20;;;;;;;2.80;1.10;;;6.20;58.90;;;;;;5005725;28;20041;-76
2023/03/28 10:00:50;;;;;;;2.90;1.17;;;6.20;58.30;;;;;;5033161;28;20034;-76
2023/03/28 10:03:28;;;;;;;4.50;1.20;;;6.30;58.90;;;;;;5022558;28;20029;-75
2023/03/28 10:05:55;;;;;;;1.60;0.90;;;6.20;57.60;;;;;;5020835;28;20018;-74
2023/03/28 10:08:38;;;;;;;2.03;0.88;;;6.10;58.90;;;;;;5029569;28;20038;-74
2023/03/28 10:11:11;;;;;;;5.15;1.02;;;6.30;59.80;;;;;;5021143;28;20021;-75
2023/03/28 10:13:51;;;;;;;3.08;0.70;;;6.50;59.30;;;;;;5047036;28;20040;-76
2023/03/28 10:16:35;;;;;;;4.80;1.10;;;6.40;57.80;;;;;;5019166;28;20025;-75
2023/03/28 10:19:01;;;;;;;4.05;1.10;;;6.10;58.00;;;;;;5016655;28;20037;-75
2023/03/28 10:21:30;;;;;;;2.30;0.77;;;6.30;57.90;;;;;;5005780;28;20627;-76
2023/03/28 10:24:03;;;;;;;3.13;1.20;;;6.80;58.60;;;;;;5030094;28;20025;-75
2023/03/28 10:26:30;;;;;;;8.70;1.30;;;7.30;57.30;;;;;;5027908;28;20089;-76
2023/03/28 10:29:00;;;;;;;2.53;1.05;;;7.60;56.40;;;;;;5037130;28;20018;-75
2023/03/28 10:31:30;;;;;;;3.92;1.20;;;7.90;54.60;;;;;;5020362;28;20088;-75
2023/03/28 10:33:58;;;;;;;4.40;1.00;;;8.40;53.60;;;;;;5019117;28;20101;-75
2023/03/28 10:36:31;;;;;;;2.25;1.10;;;8.40;52.60;;;;;;5030462;28;20080;-76
2023/03/28 10:38:57;;;;;;;2.45;0.98;;;8.10;51.40;;;;;;5037743;28;20104;-77
2023/03/28 10:41:23;;;;;;;3.20;1.35;;;7.80;52.00;;;;;;5035811;28;20026;-76
2023/03/28 10:43:49;;;;;;;4.03;1.10;;;7.60;53.50;;;;;;5023737;28;20141;-77
2023/03/28 10:46:19;;;;;;;1.20;1.05;;;7.30;53.80;;;;;;5017438;28;20049;-75
2023/03/28 10:48:52;;;;;;;3.05;1.10;;;7.10;54.20;;;;;;5018409;28;20515;-76
2023/03/28 10:51:22;;;;;;;;;;;7.00;53.20;;;;;;5019724;28;20064;-75
2023/03/28 10:53:54;;;;;;;3.65;0.90;;;6.70;54.10;;;;;;5024266;28;20401;-74
2023/03/28 10:56:37;;;;;;;1.60;0.80;;;6.50;54.70;;;;;;5036320;28;20049;-75
2023/03/28 10:59:22;;;;;;;4.20;1.08;;;6.50;54.80;;;;;;5037822;28;20405;-75
2023/03/28 11:02:11;;;;;;;3.58;1.13;;;6.40;55.30;;;;;;5027479;28;20022;-76
2023/03/28 11:04:59;;;;;;;5.35;0.95;;;6.60;54.90;;;;;;5013602;28;20041;-75
2023/03/28 11:07:40;;;;;;;2.35;0.88;;;7.00;53.20;;;;;;5018004;28;20179;-75
2023/03/28 11:10:33;;;;;;;2.30;0.85;;;7.30;52.80;;;;;;5017135;28;20030;-77
2023/03/28 11:13:02;;;;;;;1.25;0.85;;;7.50;52.70;;;;;;5015121;28;20025;-75
2023/03/28 11:15:45;;;;;;;1.40;0.77;;;7.70;52.20;;;;;;5014985;28;20275;-76
2023/03/28 11:18:10;;;;;;;4.55;1.10;;;7.80;50.70;;;;;;5012450;28;20045;-76
2023/03/28 11:20:59;;;;;;;2.10;0.90;;;8.00;50.70;;;;;;5015707;28;20029;-75
2023/03/28 11:23:24;;;;;;;3.17;1.25;;;7.80;51.40;;;;;;5017237;28;20100;-75
2023/03/28 11:26:09;;;;;;;4.70;1.40;;;7.70;51.70;;;;;;5024205;28;20052;-76
2023/03/28 11:28:57;;;;;;;4.35;1.45;;;7.40;52.10;;;;;;5019222;28;20017;-76
2023/03/28 11:31:38;;;;;;;3.15;1.02;;;7.50;53.20;;;;;;5017437;28;20036;-74
2023/03/28 11:34:32;;;;;;;2.55;1.25;;;7.70;52.90;;;;;;5015927;28;20445;-75
2023/03/28 11:37:03;;;;;;;4.95;0.98;;;8.00;52.80;;;;;;5030440;28;20037;-75
2023/03/28 11:39:41;;;;;;;4.88;1.30;;;8.40;52.40;;;;;;5034340;28;20021;-74
2023/03/28 11:42:23;;;;;;;1.25;0.98;;;8.80;50.50;;;;;;5019857;28;20022;-76
2023/03/28 11:45:07;;;;;;;3.60;1.03;;;9.10;49.80;;;;;;5030659;28;20081;-75
2023/03/28 11:47:40;;;;;;;4.28;1.27;;;8.90;49.30;;;;;;5015567;28;20042;-75
2023/03/28 11:50:23;;;;;;;2.63;1.08;;;8.60;49.50;;;;;;5027311;28;20017;-75
2023/03/28 11:52:58;;;;;;;4.00;1.45;;;8.20;49.70;;;;;;4996722;28;20104;-76
2023/03/28 11:55:43;;;;;;;1.60;1.00;;;8.30;50.50;;;;;;5014874;28;20021;-75
2023/03/28 11:58:24;;;;;;;2.88;1.35;;;8.20;50.50;;;;;;5028467;28;20036;-76
2023/03/28 12:01:13;;;;;;;3.92;1.40;;;8.10;51.30;;;;;;5028386;28;20026;-75
2023/03/28 12:03:46;;;;;;;5.47;1.25;;;8.20;51.20;;;;;;5016978;28;20091;-75
2023/03/28 12:06:18;;;;;;;3.67;1.27;;;8.20;50.20;;;;;;5028288;28;20029;-76
2023/03/28 12:08:56;;;;;;;2.95;1.60;;;8.40;50.20;;;;;;5044443;28;20102;-76
2023/03/28 12:11:57;;;;;;;3.42;1.65;;;8.60;49.10;;;;;;5026044;28;20069;-75
2023/03/28 12:14:33;;;;;;;2.35;1.20;;;8.70;49.20;;;;;;4994733;28;20042;-76
2023/03/28 12:17:03;;;;;;;2.92;1.75;;;8.90;49.40;;;;;;5022170;28;20050;-75
2023/03/28 12:19:35;;;;;;;0.98;0.95;;;9.10;48.10;;;;;;5030183;28;20410;-76
2023/03/28 12:22:17;;;;;;;3.70;1.90;;;9.10;48.20;;;;;;5034100;28;20474;-75
2023/03/28 12:24:52;;;;;;;2.33;1.48;;;9.10;49.00;;;;;;5018015;28;20041;-76
2023/03/28 12:28:02;;;;;;;2.85;0.90;;;9.30;48.60;;;;;;5016744;28;20033;-75
2023/03/28 12:30:41;;;;;;;2.15;1.15;;;9.30;48.90;;;;;;4995105;28;20441;-77
2023/03/28 12:33:29;;;;;;;4.10;1.20;;;9.70;47.60;;;;;;5015220;28;20612;-76
2023/03/28 12:36:11;;;;;;;1.67;1.02;;;9.70;45.80;;;;;;5016500;28;20018;-75
2023/03/28 12:38:46;;;;;;;2.67;1.13;;;9.70;46.40;;;;;;5015435;28;20116;-77
2023/03/28 12:41:19;;;;;;;0.73;0.60;;;9.70;45.80;;;;;;5019180;28;20128;-76
2023/03/28 12:44:06;;;;;;;3.80;1.00;;;9.90;46.20;;;;;;5026361;28;20382;-76
2023/03/28 12:46:38;;;;;;;1.73;1.10;;;9.90;45.50;;;;;;5005436;28;20044;-76
2023/03/28 12:49:17;;;;;;;5.05;1.08;;;10.10;45.20;;;;;;4996471;28;20360;-76
2023/03/28 12:51:52;;;;;;;3.50;1.23;;;10.20;45.90;;;;;;5038357;28;20044;-75
2023/03/28 12:54:30;;;;;;;2.85;1.17;;;10.40;44.80;;;;;;5019301;28;20030;-75
2023/03/28 12:57:08;;;;;;;1.33;1.20;;;10.40;45.10;;;;;;5023690;28;20022;-77
2023/03/28 12:59:40;;;;;;;2.22;1.20;;;10.30;45.10;;;;;;5019499;28;20097;-75
2023/03/28 13:02:27;;;;;;;1.17;0.90;;;10.40;45.00;;;;;;5037165;28;20029;-77
2023/03/28 13:05:28;;;;;;;2.35;1.02;;;10.40;45.30;;;;;;5015834;28;20553;-77
2023/03/28 13:08:18;;;;;;;1.98;1.30;;;10.70;45.70;;;;;;4994437;28;20380;-76
2023/03/28 13:11:22;;;;;;;4.53;1.42;;;11.30;45.30;;;;;;5013748;28;20034;-75
2023/03/28 13:14:26;;;;;;;3.97;1.30;;;11.80;43.90;;;;;;5019438;28;20390;-75
2023/03/28 13:16:57;;;;;;;3.45;1.35;;;11.70;43.20;;;;;;5020031;28;20026;-77
2023/03/28 13:19:41;;;;;;;1.73;1.05;;;11.60;42.80;;;;;;5001012;28;20068;-76
2023/03/28 13:22:24;;;;;;;2.15;1.20;;;11.80;44.40;;;;;;5017763;28;20058;-76